sensor_id;sensor_type;location;lat;lon;timestamp;P1;durP1;ratioP1;P2;durP2;ratioP2
12367;SDS011;6248;49.812;6.620;2023-11-18T00:00:56;11.10;;;9.80;;
12367;SDS011;6248;49.812;6.620;2023-11-18T00:03:23;14.20;;;10.60;;
12367;SDS011;6248;49.812;6.620;2023-11-18T00:05:50;11.80;;;10.07;;
12367;SDS011;6248;49.812;6.620;2023-11-18T00:08:17;11.57;;;9.93;;
12367;SDS011;6248;49.812;6.620;2023-11-18T00:10:45;11.13;;;9.80;;
12367;SDS011;6248;49.812;6.620;2023-11-18T00:13:12;13.50;;;10.50;;
12367;SDS011;6248;49.812;6.620;2023-11-18T00:15:39;20.90;;;11.17;;
12367;SDS011;6248;49.812;6.620;2023-11-18T00:18:09;12.87;;;9.97;;
12367;SDS011;6248;49.812;6.620;2023-11-18T00:20:36;13.40;;;10.60;;
12367;SDS011;6248;49.812;6.620;2023-11-18T00:23:04;13.77;;;9.87;;
12367;SDS011;6248;49.812;6.620;2023-11-18T00:25:31;20.07;;;11.60;;
12367;SDS011;6248;49.812;6.620;2023-11-18T00:28:00;19.33;;;11.30;;
12367;SDS011;6248;49.812;6.620;2023-11-18T00:30:27;14.80;;;10.70;;
12367;SDS011;6248;49.812;6.620;2023-11-18T00:32:54;13.77;;;10.10;;
12367;SDS011;6248;49.812;6.620;2023-11-18T00:35:23;14.77;;;10.00;;
12367;SDS011;6248;49.812;6.620;2023-11-18T00:37:50;21.40;;;11.60;;
12367;SDS011;6248;49.812;6.620;2023-11-18T00:40:17;23.10;;;11.63;;
12367;SDS011;6248;49.812;6.620;2023-11-18T00:42:44;19.53;;;11.53;;
12367;SDS011;6248;49.812;6.620;2023-11-18T00:45:12;11.30;;;9.80;;
12367;SDS011;6248;49.812;6.620;2023-11-18T00:47:39;13.90;;;10.57;;
12367;SDS011;6248;49.812;6.620;2023-11-18T00:50:07;14.47;;;10.60;;
12367;SDS011;6248;49.812;6.620;2023-11-18T00:52:36;15.40;;;11.30;;
12367;SDS011;6248;49.812;6.620;2023-11-18T00:55:06;14.53;;;11.43;;
12367;SDS011;6248;49.812;6.620;2023-11-18T00:57:35;15.20;;;11.23;;
12367;SDS011;6248;49.812;6.620;2023-11-18T01:00:04;14.70;;;11.43;;
12367;SDS011;6248;49.812;6.620;2023-11-18T01:02:32;18.27;;;12.07;;
12367;SDS011;6248;49.812;6.620;2023-11-18T01:04:59;14.87;;;11.20;;
12367;SDS011;6248;49.812;6.620;2023-11-18T01:07:26;18.70;;;11.53;;
12367;SDS011;6248;49.812;6.620;2023-11-18T01:09:55;15.87;;;10.77;;
12367;SDS011;6248;49.812;6.620;2023-11-18T01:12:22;63.33;;;12.83;;
12367;SDS011;6248;49.812;6.620;2023-11-18T01:14:49;15.67;;;10.57;;
12367;SDS011;6248;49.812;6.620;2023-11-18T01:17:16;198.03;;;16.50;;
12367;SDS011;6248;49.812;6.620;2023-11-18T01:19:45;107.97;;;13.83;;
12367;SDS011;6248;49.812;6.620;2023-11-18T01:22:12;43.57;;;11.70;;
12367;SDS011;6248;49.812;6.620;2023-11-18T01:24:40;33.43;;;11.37;;
12367;SDS011;6248;49.812;6.620;2023-11-18T01:27:08;46.07;;;10.70;;
12367;SDS011;6248;49.812;6.620;2023-11-18T01:29:36;60.80;;;11.67;;
12367;SDS011;6248;49.812;6.620;2023-11-18T01:32:04;21.10;;;10.37;;
12367;SDS011;6248;49.812;6.620;2023-11-18T01:34:34;95.37;;;12.00;;
12367;SDS011;6248;49.812;6.620;2023-11-18T01:37:08;22.17;;;9.87;;
12367;SDS011;6248;49.812;6.620;2023-11-18T01:39:35;17.33;;;9.57;;
12367;SDS011;6248;49.812;6.620;2023-11-18T01:42:03;84.87;;;13.13;;
12367;SDS011;6248;49.812;6.620;2023-11-18T01:44:31;35.47;;;10.03;;
12367;SDS011;6248;49.812;6.620;2023-11-18T01:47:00;74.03;;;11.30;;
12367;SDS011;6248;49.812;6.620;2023-11-18T01:49:31;28.40;;;10.40;;
12367;SDS011;6248;49.812;6.620;2023-11-18T01:52:00;45.90;;;11.10;;
12367;SDS011;6248;49.812;6.620;2023-11-18T01:54:29;42.37;;;11.60;;
12367;SDS011;6248;49.812;6.620;2023-11-18T01:56:57;23.40;;;10.57;;
12367;SDS011;6248;49.812;6.620;2023-11-18T01:59:25;57.90;;;11.43;;
12367;SDS011;6248;49.812;6.620;2023-11-18T02:01:56;120.03;;;11.97;;
12367;SDS011;6248;49.812;6.620;2023-11-18T02:04:24;29.27;;;10.33;;
12367;SDS011;6248;49.812;6.620;2023-11-18T02:06:53;15.13;;;9.80;;
12367;SDS011;6248;49.812;6.620;2023-11-18T02:09:21;104.97;;;13.47;;
12367;SDS011;6248;49.812;6.620;2023-11-18T02:11:54;34.40;;;10.63;;
12367;SDS011;6248;49.812;6.620;2023-11-18T02:14:23;36.50;;;10.47;;
12367;SDS011;6248;49.812;6.620;2023-11-18T02:16:53;22.00;;;10.13;;
12367;SDS011;6248;49.812;6.620;2023-11-18T02:19:24;23.87;;;10.83;;
12367;SDS011;6248;49.812;6.620;2023-11-18T02:21:52;21.40;;;10.53;;
12367;SDS011;6248;49.812;6.620;2023-11-18T02:24:25;71.03;;;12.50;;
12367;SDS011;6248;49.812;6.620;2023-11-18T02:26:56;48.57;;;12.03;;
12367;SDS011;6248;49.812;6.620;2023-11-18T02:29:23;24.97;;;10.50;;
12367;SDS011;6248;49.812;6.620;2023-11-18T02:31:52;15.43;;;9.80;;
12367;SDS011;6248;49.812;6.620;2023-11-18T02:34:22;43.73;;;11.30;;
12367;SDS011;6248;49.812;6.620;2023-11-18T02:36:53;26.33;;;10.60;;
12367;SDS011;6248;49.812;6.620;2023-11-18T02:39:25;23.67;;;10.23;;
12367;SDS011;6248;49.812;6.620;2023-11-18T02:41:55;15.43;;;9.23;;
12367;SDS011;6248;49.812;6.620;2023-11-18T02:44:23;54.97;;;10.60;;
12367;SDS011;6248;49.812;6.620;2023-11-18T02:46:51;32.87;;;10.40;;
12367;SDS011;6248;49.812;6.620;2023-11-18T02:49:18;20.03;;;9.20;;
12367;SDS011;6248;49.812;6.620;2023-11-18T02:51:45;15.63;;;8.10;;
12367;SDS011;6248;49.812;6.620;2023-11-18T02:54:12;12.37;;;8.10;;
12367;SDS011;6248;49.812;6.620;2023-11-18T02:56:41;11.50;;;7.90;;
12367;SDS011;6248;49.812;6.620;2023-11-18T02:59:10;24.90;;;8.47;;
12367;SDS011;6248;49.812;6.620;2023-11-18T03:01:38;21.17;;;7.50;;
12367;SDS011;6248;49.812;6.620;2023-11-18T03:04:06;54.47;;;8.17;;
12367;SDS011;6248;49.812;6.620;2023-11-18T03:06:34;49.07;;;8.77;;
12367;SDS011;6248;49.812;6.620;2023-11-18T03:09:02;80.70;;;8.97;;
12367;SDS011;6248;49.812;6.620;2023-11-18T03:11:32;125.97;;;10.90;;
12367;SDS011;6248;49.812;6.620;2023-11-18T03:13:59;259.03;;;12.40;;
12367;SDS011;6248;49.812;6.620;2023-11-18T03:16:28;41.33;;;8.23;;
12367;SDS011;6248;49.812;6.620;2023-11-18T03:18:55;71.13;;;8.87;;
12367;SDS011;6248;49.812;6.620;2023-11-18T03:21:23;94.13;;;10.83;;
12367;SDS011;6248;49.812;6.620;2023-11-18T03:23:51;51.83;;;8.70;;
12367;SDS011;6248;49.812;6.620;2023-11-18T03:26:19;28.27;;;8.30;;
12367;SDS011;6248;49.812;6.620;2023-11-18T03:28:46;39.93;;;8.20;;
12367;SDS011;6248;49.812;6.620;2023-11-18T03:31:13;23.63;;;7.77;;
12367;SDS011;6248;49.812;6.620;2023-11-18T03:33:42;90.43;;;9.70;;
12367;SDS011;6248;49.812;6.620;2023-11-18T03:36:09;95.77;;;10.73;;
12367;SDS011;6248;49.812;6.620;2023-11-18T03:38:38;10.47;;;7.90;;
12367;SDS011;6248;49.812;6.620;2023-11-18T03:41:05;95.97;;;9.53;;
12367;SDS011;6248;49.812;6.620;2023-11-18T03:43:33;155.57;;;11.50;;
12367;SDS011;6248;49.812;6.620;2023-11-18T03:46:01;53.13;;;9.07;;
12367;SDS011;6248;49.812;6.620;2023-11-18T03:48:28;73.73;;;9.57;;
12367;SDS011;6248;49.812;6.620;2023-11-18T03:50:56;110.07;;;9.73;;
12367;SDS011;6248;49.812;6.620;2023-11-18T03:53:24;33.00;;;8.03;;
12367;SDS011;6248;49.812;6.620;2023-11-18T03:55:51;17.07;;;7.73;;
12367;SDS011;6248;49.812;6.620;2023-11-18T03:58:18;13.50;;;7.43;;
12367;SDS011;6248;49.812;6.620;2023-11-18T04:00:45;122.30;;;10.20;;
12367;SDS011;6248;49.812;6.620;2023-11-18T04:03:12;14.67;;;7.57;;
12367;SDS011;6248;49.812;6.620;2023-11-18T04:05:40;11.73;;;7.20;;
12367;SDS011;6248;49.812;6.620;2023-11-18T04:08:09;15.60;;;7.47;;
12367;SDS011;6248;49.812;6.620;2023-11-18T04:10:36;22.37;;;7.97;;
12367;SDS011;6248;49.812;6.620;2023-11-18T04:13:03;40.07;;;8.67;;
12367;SDS011;6248;49.812;6.620;2023-11-18T04:15:30;9.43;;;7.43;;
12367;SDS011;6248;49.812;6.620;2023-11-18T04:17:58;10.70;;;7.70;;
12367;SDS011;6248;49.812;6.620;2023-11-18T04:20:25;14.23;;;8.10;;
12367;SDS011;6248;49.812;6.620;2023-11-18T04:22:52;9.53;;;7.43;;
12367;SDS011;6248;49.812;6.620;2023-11-18T04:25:21;16.47;;;7.10;;
12367;SDS011;6248;49.812;6.620;2023-11-18T04:27:48;8.93;;;6.90;;
12367;SDS011;6248;49.812;6.620;2023-11-18T04:30:15;8.63;;;7.40;;
12367;SDS011;6248;49.812;6.620;2023-11-18T04:32:43;28.87;;;8.10;;
12367;SDS011;6248;49.812;6.620;2023-11-18T04:35:10;34.60;;;8.47;;
12367;SDS011;6248;49.812;6.620;2023-11-18T04:37:37;57.30;;;8.40;;
12367;SDS011;6248;49.812;6.620;2023-11-18T04:40:08;12.57;;;7.10;;
12367;SDS011;6248;49.812;6.620;2023-11-18T04:42:38;17.87;;;7.37;;
12367;SDS011;6248;49.812;6.620;2023-11-18T04:45:06;16.97;;;7.20;;
12367;SDS011;6248;49.812;6.620;2023-11-18T04:47:34;12.67;;;6.87;;
12367;SDS011;6248;49.812;6.620;2023-11-18T04:50:02;8.90;;;6.70;;
12367;SDS011;6248;49.812;6.620;2023-11-18T04:52:30;14.30;;;6.93;;
12367;SDS011;6248;49.812;6.620;2023-11-18T04:54:59;11.67;;;6.23;;
12367;SDS011;6248;49.812;6.620;2023-11-18T04:57:27;11.17;;;7.00;;
12367;SDS011;6248;49.812;6.620;2023-11-18T04:59:56;9.77;;;6.73;;
12367;SDS011;6248;49.812;6.620;2023-11-18T05:02:23;9.33;;;5.93;;
12367;SDS011;6248;49.812;6.620;2023-11-18T05:04:50;9.63;;;6.33;;
12367;SDS011;6248;49.812;6.620;2023-11-18T05:07:17;32.10;;;7.30;;
12367;SDS011;6248;49.812;6.620;2023-11-18T05:09:44;10.90;;;5.93;;
12367;SDS011;6248;49.812;6.620;2023-11-18T05:12:11;18.93;;;6.87;;
12367;SDS011;6248;49.812;6.620;2023-11-18T05:14:38;9.63;;;6.53;;
12367;SDS011;6248;49.812;6.620;2023-11-18T05:17:07;32.10;;;8.20;;
12367;SDS011;6248;49.812;6.620;2023-11-18T05:19:34;9.50;;;6.30;;
12367;SDS011;6248;49.812;6.620;2023-11-18T05:22:01;11.10;;;5.70;;
12367;SDS011;6248;49.812;6.620;2023-11-18T05:24:28;9.20;;;5.80;;
12367;SDS011;6248;49.812;6.620;2023-11-18T05:26:56;40.73;;;7.20;;
12367;SDS011;6248;49.812;6.620;2023-11-18T05:29:26;17.93;;;7.17;;
12367;SDS011;6248;49.812;6.620;2023-11-18T05:31:56;9.13;;;6.07;;
12367;SDS011;6248;49.812;6.620;2023-11-18T05:34:24;7.17;;;5.63;;
12367;SDS011;6248;49.812;6.620;2023-11-18T05:36:54;9.50;;;5.80;;
12367;SDS011;6248;49.812;6.620;2023-11-18T05:39:24;14.17;;;6.90;;
12367;SDS011;6248;49.812;6.620;2023-11-18T05:41:53;11.30;;;6.80;;
12367;SDS011;6248;49.812;6.620;2023-11-18T05:44:21;14.00;;;7.60;;
12367;SDS011;6248;49.812;6.620;2023-11-18T05:46:55;13.20;;;7.17;;
12367;SDS011;6248;49.812;6.620;2023-11-18T05:49:22;10.23;;;6.60;;
12367;SDS011;6248;49.812;6.620;2023-11-18T05:51:53;13.57;;;8.10;;
12367;SDS011;6248;49.812;6.620;2023-11-18T05:54:21;10.53;;;6.93;;
12367;SDS011;6248;49.812;6.620;2023-11-18T05:56:48;13.57;;;7.93;;
12367;SDS011;6248;49.812;6.620;2023-11-18T05:59:16;15.10;;;7.50;;
12367;SDS011;6248;49.812;6.620;2023-11-18T06:01:43;13.93;;;7.23;;
12367;SDS011;6248;49.812;6.620;2023-11-18T06:04:13;8.90;;;6.37;;
12367;SDS011;6248;49.812;6.620;2023-11-18T06:06:40;8.80;;;6.20;;
12367;SDS011;6248;49.812;6.620;2023-11-18T06:09:09;9.27;;;6.37;;
12367;SDS011;6248;49.812;6.620;2023-11-18T06:11:45;11.13;;;6.47;;
12367;SDS011;6248;49.812;6.620;2023-11-18T06:14:14;9.47;;;6.40;;
12367;SDS011;6248;49.812;6.620;2023-11-18T06:16:43;12.03;;;6.87;;
12367;SDS011;6248;49.812;6.620;2023-11-18T06:19:10;12.63;;;6.47;;
12367;SDS011;6248;49.812;6.620;2023-11-18T06:21:37;16.60;;;7.33;;
12367;SDS011;6248;49.812;6.620;2023-11-18T06:24:05;18.53;;;6.93;;
12367;SDS011;6248;49.812;6.620;2023-11-18T06:26:37;7.40;;;5.77;;
12367;SDS011;6248;49.812;6.620;2023-11-18T06:29:10;8.87;;;6.30;;
12367;SDS011;6248;49.812;6.620;2023-11-18T06:31:40;8.77;;;6.37;;
12367;SDS011;6248;49.812;6.620;2023-11-18T06:34:07;8.23;;;5.77;;
12367;SDS011;6248;49.812;6.620;2023-11-18T06:36:35;11.30;;;6.57;;
12367;SDS011;6248;49.812;6.620;2023-11-18T06:39:02;9.17;;;6.17;;
12367;SDS011;6248;49.812;6.620;2023-11-18T06:41:32;7.37;;;5.97;;
12367;SDS011;6248;49.812;6.620;2023-11-18T06:44:01;9.10;;;5.97;;
12367;SDS011;6248;49.812;6.620;2023-11-18T06:46:34;9.60;;;6.10;;
12367;SDS011;6248;49.812;6.620;2023-11-18T06:49:04;12.50;;;6.60;;
12367;SDS011;6248;49.812;6.620;2023-11-18T06:51:33;9.33;;;6.43;;
12367;SDS011;6248;49.812;6.620;2023-11-18T06:54:03;7.23;;;6.10;;
12367;SDS011;6248;49.812;6.620;2023-11-18T06:56:34;9.13;;;6.67;;
12367;SDS011;6248;49.812;6.620;2023-11-18T06:59:03;9.80;;;7.87;;
12367;SDS011;6248;49.812;6.620;2023-11-18T07:01:31;11.20;;;7.33;;
12367;SDS011;6248;49.812;6.620;2023-11-18T07:03:58;8.23;;;7.27;;
12367;SDS011;6248;49.812;6.620;2023-11-18T07:06:26;8.73;;;6.60;;
12367;SDS011;6248;49.812;6.620;2023-11-18T07:08:53;9.23;;;6.00;;
12367;SDS011;6248;49.812;6.620;2023-11-18T07:11:21;9.20;;;6.27;;
12367;SDS011;6248;49.812;6.620;2023-11-18T07:13:48;16.70;;;11.80;;
12367;SDS011;6248;49.812;6.620;2023-11-18T07:16:23;9.93;;;7.07;;
12367;SDS011;6248;49.812;6.620;2023-11-18T07:18:50;8.77;;;5.77;;
12367;SDS011;6248;49.812;6.620;2023-11-18T07:21:18;10.20;;;6.50;;
12367;SDS011;6248;49.812;6.620;2023-11-18T07:23:45;9.07;;;6.23;;
12367;SDS011;6248;49.812;6.620;2023-11-18T07:26:12;8.10;;;5.33;;
12367;SDS011;6248;49.812;6.620;2023-11-18T07:28:40;14.10;;;9.30;;
12367;SDS011;6248;49.812;6.620;2023-11-18T07:31:08;8.00;;;5.90;;
12367;SDS011;6248;49.812;6.620;2023-11-18T07:33:37;6.33;;;5.13;;
12367;SDS011;6248;49.812;6.620;2023-11-18T07:36:04;9.07;;;5.30;;
12367;SDS011;6248;49.812;6.620;2023-11-18T07:38:36;6.03;;;5.00;;
12367;SDS011;6248;49.812;6.620;2023-11-18T07:41:03;9.23;;;5.43;;
12367;SDS011;6248;49.812;6.620;2023-11-18T07:43:33;7.83;;;5.43;;
12367;SDS011;6248;49.812;6.620;2023-11-18T07:46:01;8.30;;;5.30;;
12367;SDS011;6248;49.812;6.620;2023-11-18T07:48:28;6.40;;;5.20;;
12367;SDS011;6248;49.812;6.620;2023-11-18T07:50:58;8.83;;;5.27;;
12367;SDS011;6248;49.812;6.620;2023-11-18T07:53:25;6.53;;;5.10;;
12367;SDS011;6248;49.812;6.620;2023-11-18T07:55:54;6.17;;;4.50;;
12367;SDS011;6248;49.812;6.620;2023-11-18T07:58:21;9.50;;;5.27;;
12367;SDS011;6248;49.812;6.620;2023-11-18T08:00:48;7.90;;;4.87;;
12367;SDS011;6248;49.812;6.620;2023-11-18T08:03:16;7.83;;;5.30;;
12367;SDS011;6248;49.812;6.620;2023-11-18T08:05:43;8.50;;;5.43;;
12367;SDS011;6248;49.812;6.620;2023-11-18T08:08:12;8.90;;;5.37;;
12367;SDS011;6248;49.812;6.620;2023-11-18T08:10:42;9.47;;;6.20;;
12367;SDS011;6248;49.812;6.620;2023-11-18T08:13:10;5.87;;;4.73;;
12367;SDS011;6248;49.812;6.620;2023-11-18T08:15:38;7.37;;;5.03;;
12367;SDS011;6248;49.812;6.620;2023-11-18T08:18:05;7.17;;;4.67;;
12367;SDS011;6248;49.812;6.620;2023-11-18T08:20:33;8.00;;;5.30;;
12367;SDS011;6248;49.812;6.620;2023-11-18T08:23:00;6.93;;;4.60;;
12367;SDS011;6248;49.812;6.620;2023-11-18T08:25:28;9.43;;;5.37;;
12367;SDS011;6248;49.812;6.620;2023-11-18T08:27:58;8.93;;;5.10;;
12367;SDS011;6248;49.812;6.620;2023-11-18T08:30:26;7.37;;;4.90;;
12367;SDS011;6248;49.812;6.620;2023-11-18T08:32:53;5.63;;;4.63;;
12367;SDS011;6248;49.812;6.620;2023-11-18T08:35:20;7.33;;;5.17;;
12367;SDS011;6248;49.812;6.620;2023-11-18T08:37:47;10.03;;;5.00;;
12367;SDS011;6248;49.812;6.620;2023-11-18T08:40:16;6.43;;;4.43;;
12367;SDS011;6248;49.812;6.620;2023-11-18T08:42:48;7.60;;;4.53;;
12367;SDS011;6248;49.812;6.620;2023-11-18T08:45:16;6.73;;;4.63;;
12367;SDS011;6248;49.812;6.620;2023-11-18T08:47:43;8.10;;;5.07;;
12367;SDS011;6248;49.812;6.620;2023-11-18T08:50:12;17.80;;;8.30;;
12367;SDS011;6248;49.812;6.620;2023-11-18T08:52:39;9.50;;;6.27;;
12367;SDS011;6248;49.812;6.620;2023-11-18T08:55:09;8.27;;;6.17;;
12367;SDS011;6248;49.812;6.620;2023-11-18T08:57:43;9.23;;;6.10;;
12367;SDS011;6248;49.812;6.620;2023-11-18T09:00:19;8.27;;;5.83;;
12367;SDS011;6248;49.812;6.620;2023-11-18T09:03:00;9.50;;;5.90;;
12367;SDS011;6248;49.812;6.620;2023-11-18T09:05:30;10.37;;;6.37;;
12367;SDS011;6248;49.812;6.620;2023-11-18T09:07:57;9.07;;;5.83;;
12367;SDS011;6248;49.812;6.620;2023-11-18T09:10:25;8.47;;;5.80;;
12367;SDS011;6248;49.812;6.620;2023-11-18T09:12:54;8.07;;;5.57;;
12367;SDS011;6248;49.812;6.620;2023-11-18T09:15:23;10.70;;;6.63;;
12367;SDS011;6248;49.812;6.620;2023-11-18T09:17:50;11.90;;;6.70;;
12367;SDS011;6248;49.812;6.620;2023-11-18T09:20:18;8.90;;;6.47;;
12367;SDS011;6248;49.812;6.620;2023-11-18T09:22:47;8.47;;;6.63;;
12367;SDS011;6248;49.812;6.620;2023-11-18T09:25:14;8.03;;;6.47;;
12367;SDS011;6248;49.812;6.620;2023-11-18T09:27:42;10.80;;;6.20;;
12367;SDS011;6248;49.812;6.620;2023-11-18T09:30:10;9.17;;;6.40;;
12367;SDS011;6248;49.812;6.620;2023-11-18T09:32:41;8.70;;;6.53;;
12367;SDS011;6248;49.812;6.620;2023-11-18T09:35:12;8.37;;;5.80;;
12367;SDS011;6248;49.812;6.620;2023-11-18T09:37:40;10.20;;;6.70;;
12367;SDS011;6248;49.812;6.620;2023-11-18T09:40:08;8.20;;;6.40;;
12367;SDS011;6248;49.812;6.620;2023-11-18T09:42:37;9.77;;;6.30;;
12367;SDS011;6248;49.812;6.620;2023-11-18T09:45:05;10.73;;;6.77;;
12367;SDS011;6248;49.812;6.620;2023-11-18T09:47:38;8.23;;;6.50;;
12367;SDS011;6248;49.812;6.620;2023-11-18T09:50:15;7.13;;;5.97;;
12367;SDS011;6248;49.812;6.620;2023-11-18T09:52:47;7.93;;;6.20;;
12367;SDS011;6248;49.812;6.620;2023-11-18T09:55:20;8.07;;;6.50;;
12367;SDS011;6248;49.812;6.620;2023-11-18T09:57:49;10.27;;;7.03;;
12367;SDS011;6248;49.812;6.620;2023-11-18T10:00:22;6.53;;;5.50;;
12367;SDS011;6248;49.812;6.620;2023-11-18T10:02:52;7.87;;;5.60;;
12367;SDS011;6248;49.812;6.620;2023-11-18T10:05:23;11.77;;;6.50;;
12367;SDS011;6248;49.812;6.620;2023-11-18T10:07:51;7.73;;;6.30;;
12367;SDS011;6248;49.812;6.620;2023-11-18T10:10:19;8.50;;;6.00;;
12367;SDS011;6248;49.812;6.620;2023-11-18T10:12:47;8.83;;;6.37;;
12367;SDS011;6248;49.812;6.620;2023-11-18T10:15:17;9.03;;;7.37;;
12367;SDS011;6248;49.812;6.620;2023-11-18T10:17:48;8.77;;;6.47;;
12367;SDS011;6248;49.812;6.620;2023-11-18T10:20:42;9.90;;;7.03;;
12367;SDS011;6248;49.812;6.620;2023-11-18T10:23:11;9.13;;;6.70;;
12367;SDS011;6248;49.812;6.620;2023-11-18T10:25:45;9.13;;;6.73;;
12367;SDS011;6248;49.812;6.620;2023-11-18T10:28:20;9.70;;;6.80;;
12367;SDS011;6248;49.812;6.620;2023-11-18T10:30:48;8.53;;;6.37;;
12367;SDS011;6248;49.812;6.620;2023-11-18T10:33:16;8.00;;;6.33;;
12367;SDS011;6248;49.812;6.620;2023-11-18T10:35:51;10.60;;;6.83;;
12367;SDS011;6248;49.812;6.620;2023-11-18T10:38:20;10.53;;;6.77;;
12367;SDS011;6248;49.812;6.620;2023-11-18T10:40:50;8.43;;;6.23;;
12367;SDS011;6248;49.812;6.620;2023-11-18T10:43:20;9.83;;;6.77;;
12367;SDS011;6248;49.812;6.620;2023-11-18T10:45:49;8.07;;;6.53;;
12367;SDS011;6248;49.812;6.620;2023-11-18T10:48:17;8.80;;;6.60;;
12367;SDS011;6248;49.812;6.620;2023-11-18T10:50:46;8.50;;;6.23;;
12367;SDS011;6248;49.812;6.620;2023-11-18T10:53:17;10.37;;;6.70;;
12367;SDS011;6248;49.812;6.620;2023-11-18T10:55:46;8.30;;;6.10;;
12367;SDS011;6248;49.812;6.620;2023-11-18T10:58:15;11.30;;;7.33;;
12367;SDS011;6248;49.812;6.620;2023-11-18T11:00:46;9.97;;;6.70;;
12367;SDS011;6248;49.812;6.620;2023-11-18T11:03:14;8.73;;;6.60;;
12367;SDS011;6248;49.812;6.620;2023-11-18T11:05:42;11.20;;;7.97;;
12367;SDS011;6248;49.812;6.620;2023-11-18T11:08:09;8.97;;;7.10;;
12367;SDS011;6248;49.812;6.620;2023-11-18T11:10:41;12.60;;;7.47;;
12367;SDS011;6248;49.812;6.620;2023-11-18T11:13:08;12.33;;;7.07;;
12367;SDS011;6248;49.812;6.620;2023-11-18T11:15:39;8.93;;;7.07;;
12367;SDS011;6248;49.812;6.620;2023-11-18T11:18:07;8.13;;;6.37;;
12367;SDS011;6248;49.812;6.620;2023-11-18T11:20:41;9.10;;;6.60;;
12367;SDS011;6248;49.812;6.620;2023-11-18T11:23:11;9.03;;;5.97;;
12367;SDS011;6248;49.812;6.620;2023-11-18T11:25:43;9.80;;;7.00;;
12367;SDS011;6248;49.812;6.620;2023-11-18T11:28:16;8.17;;;5.73;;
12367;SDS011;6248;49.812;6.620;2023-11-18T11:30:50;8.23;;;5.83;;
12367;SDS011;6248;49.812;6.620;2023-11-18T11:33:23;8.33;;;5.83;;
12367;SDS011;6248;49.812;6.620;2023-11-18T11:35:54;12.47;;;6.23;;
12367;SDS011;6248;49.812;6.620;2023-11-18T11:38:23;10.10;;;6.00;;
12367;SDS011;6248;49.812;6.620;2023-11-18T11:40:53;8.37;;;5.90;;
12367;SDS011;6248;49.812;6.620;2023-11-18T11:43:21;7.83;;;5.23;;
12367;SDS011;6248;49.812;6.620;2023-11-18T11:45:50;9.07;;;5.63;;
12367;SDS011;6248;49.812;6.620;2023-11-18T11:48:19;7.60;;;5.77;;
12367;SDS011;6248;49.812;6.620;2023-11-18T11:51:02;7.00;;;5.03;;
12367;SDS011;6248;49.812;6.620;2023-11-18T11:53:40;6.90;;;4.90;;
12367;SDS011;6248;49.812;6.620;2023-11-18T11:56:12;9.00;;;5.23;;
12367;SDS011;6248;49.812;6.620;2023-11-18T11:58:46;7.17;;;5.13;;
12367;SDS011;6248;49.812;6.620;2023-11-18T12:01:22;9.50;;;5.77;;
12367;SDS011;6248;49.812;6.620;2023-11-18T12:03:56;9.97;;;6.13;;
12367;SDS011;6248;49.812;6.620;2023-11-18T12:06:23;8.90;;;5.77;;
12367;SDS011;6248;49.812;6.620;2023-11-18T12:08:51;8.90;;;5.10;;
12367;SDS011;6248;49.812;6.620;2023-11-18T12:11:20;10.70;;;5.80;;
12367;SDS011;6248;49.812;6.620;2023-11-18T12:13:59;10.47;;;5.90;;
12367;SDS011;6248;49.812;6.620;2023-11-18T12:19:29;6.73;;;4.87;;
12367;SDS011;6248;49.812;6.620;2023-11-18T12:21:57;7.73;;;5.33;;
12367;SDS011;6248;49.812;6.620;2023-11-18T12:24:26;10.80;;;5.60;;
12367;SDS011;6248;49.812;6.620;2023-11-18T12:26:55;7.70;;;5.90;;
12367;SDS011;6248;49.812;6.620;2023-11-18T12:29:32;9.60;;;6.83;;
12367;SDS011;6248;49.812;6.620;2023-11-18T12:32:00;7.33;;;5.60;;
12367;SDS011;6248;49.812;6.620;2023-11-18T12:37:17;7.43;;;5.87;;
12367;SDS011;6248;49.812;6.620;2023-11-18T12:40:00;9.17;;;6.00;;
12367;SDS011;6248;49.812;6.620;2023-11-18T12:42:52;8.17;;;5.90;;
12367;SDS011;6248;49.812;6.620;2023-11-18T12:48:13;10.53;;;6.07;;
12367;SDS011;6248;49.812;6.620;2023-11-18T12:50:41;8.77;;;5.67;;
12367;SDS011;6248;49.812;6.620;2023-11-18T12:53:10;5.47;;;4.80;;
12367;SDS011;6248;49.812;6.620;2023-11-18T12:55:40;8.27;;;4.97;;
12367;SDS011;6248;49.812;6.620;2023-11-18T12:58:08;7.57;;;5.00;;
12367;SDS011;6248;49.812;6.620;2023-11-18T13:00:39;8.43;;;5.10;;
12367;SDS011;6248;49.812;6.620;2023-11-18T13:03:08;7.30;;;4.83;;
12367;SDS011;6248;49.812;6.620;2023-11-18T13:05:36;5.90;;;4.23;;
12367;SDS011;6248;49.812;6.620;2023-11-18T13:08:03;5.20;;;3.80;;
12367;SDS011;6248;49.812;6.620;2023-11-18T13:10:30;4.67;;;3.93;;
12367;SDS011;6248;49.812;6.620;2023-11-18T13:12:58;5.00;;;4.10;;
12367;SDS011;6248;49.812;6.620;2023-11-18T13:15:27;5.97;;;3.77;;
12367;SDS011;6248;49.812;6.620;2023-11-18T13:17:58;6.53;;;3.27;;
12367;SDS011;6248;49.812;6.620;2023-11-18T13:20:25;5.60;;;3.20;;
12367;SDS011;6248;49.812;6.620;2023-11-18T13:22:52;5.77;;;3.10;;
12367;SDS011;6248;49.812;6.620;2023-11-18T13:25:21;5.43;;;3.27;;
12367;SDS011;6248;49.812;6.620;2023-11-18T13:27:48;3.70;;;2.97;;
12367;SDS011;6248;49.812;6.620;2023-11-18T13:30:16;5.00;;;2.80;;
12367;SDS011;6248;49.812;6.620;2023-11-18T13:32:44;5.23;;;3.20;;
12367;SDS011;6248;49.812;6.620;2023-11-18T13:35:14;4.90;;;2.80;;
12367;SDS011;6248;49.812;6.620;2023-11-18T13:37:45;5.43;;;3.20;;
12367;SDS011;6248;49.812;6.620;2023-11-18T13:40:13;4.43;;;2.70;;
12367;SDS011;6248;49.812;6.620;2023-11-18T13:42:43;5.03;;;2.63;;
12367;SDS011;6248;49.812;6.620;2023-11-18T13:45:12;4.37;;;2.57;;
12367;SDS011;6248;49.812;6.620;2023-11-18T13:47:49;5.37;;;2.60;;
12367;SDS011;6248;49.812;6.620;2023-11-18T13:50:17;4.53;;;2.03;;
12367;SDS011;6248;49.812;6.620;2023-11-18T13:52:45;3.27;;;2.20;;
12367;SDS011;6248;49.812;6.620;2023-11-18T13:55:14;4.47;;;2.30;;
12367;SDS011;6248;49.812;6.620;2023-11-18T13:57:50;4.70;;;2.70;;
12367;SDS011;6248;49.812;6.620;2023-11-18T14:00:17;3.77;;;2.20;;
12367;SDS011;6248;49.812;6.620;2023-11-18T14:02:50;3.50;;;2.47;;
12367;SDS011;6248;49.812;6.620;2023-11-18T14:05:17;4.13;;;2.67;;
12367;SDS011;6248;49.812;6.620;2023-11-18T14:07:47;2.77;;;2.30;;
12367;SDS011;6248;49.812;6.620;2023-11-18T14:10:15;4.40;;;2.70;;
12367;SDS011;6248;49.812;6.620;2023-11-18T14:12:58;11.43;;;3.90;;
12367;SDS011;6248;49.812;6.620;2023-11-18T14:15:25;6.70;;;3.10;;
12367;SDS011;6248;49.812;6.620;2023-11-18T14:17:53;3.93;;;3.50;;
12367;SDS011;6248;49.812;6.620;2023-11-18T14:20:21;4.43;;;3.90;;
12367;SDS011;6248;49.812;6.620;2023-11-18T14:22:48;4.87;;;2.90;;
12367;SDS011;6248;49.812;6.620;2023-11-18T14:25:17;5.07;;;3.03;;
12367;SDS011;6248;49.812;6.620;2023-11-18T14:27:44;4.50;;;2.70;;
12367;SDS011;6248;49.812;6.620;2023-11-18T14:30:13;3.83;;;2.83;;
12367;SDS011;6248;49.812;6.620;2023-11-18T14:32:41;7.17;;;3.20;;
12367;SDS011;6248;49.812;6.620;2023-11-18T14:35:10;3.67;;;2.90;;
12367;SDS011;6248;49.812;6.620;2023-11-18T14:37:42;5.87;;;3.27;;
12367;SDS011;6248;49.812;6.620;2023-11-18T14:40:10;4.20;;;2.90;;
12367;SDS011;6248;49.812;6.620;2023-11-18T14:42:39;4.20;;;2.90;;
12367;SDS011;6248;49.812;6.620;2023-11-18T14:45:08;6.57;;;3.30;;
12367;SDS011;6248;49.812;6.620;2023-11-18T14:47:37;3.77;;;3.10;;
12367;SDS011;6248;49.812;6.620;2023-11-18T14:50:05;6.10;;;3.30;;
12367;SDS011;6248;49.812;6.620;2023-11-18T14:52:44;4.33;;;2.87;;
12367;SDS011;6248;49.812;6.620;2023-11-18T14:55:11;3.87;;;3.00;;
12367;SDS011;6248;49.812;6.620;2023-11-18T14:57:38;3.63;;;3.23;;
12367;SDS011;6248;49.812;6.620;2023-11-18T15:00:06;4.27;;;2.97;;
12367;SDS011;6248;49.812;6.620;2023-11-18T15:02:34;5.03;;;3.33;;
12367;SDS011;6248;49.812;6.620;2023-11-18T15:05:01;3.47;;;3.10;;
12367;SDS011;6248;49.812;6.620;2023-11-18T15:07:30;3.87;;;2.70;;
12367;SDS011;6248;49.812;6.620;2023-11-18T15:09:59;5.30;;;2.80;;
12367;SDS011;6248;49.812;6.620;2023-11-18T15:12:28;4.20;;;2.80;;